Des Moines, Iowa
Current Conditions -  °F | °C
As of 1:54 AM on Friday 31 Oct 2014 (Local Time) from KDSM Reporting Station
Broken Clouds Broken Clouds  
Wind Chill: 34°   Ceiling: 3300
Heat Index: 42°   Visibility: 10mi
Dew Point: 26°   Wind: 16mph
Humidity: 53%   Direction: 360°N
Pressure: 30.32"   Gusts: 29mph
Location:  41.59°N, 93.61°W
Report Text: KDSM 310654Z 36014G25KT 10SM BKN033 06/M03 A3032 RMK AO2 PK WND 35029/0643 RAB19E28 SLP268 P0000 T00561033
Loading
Personal Weather Stations






























Interactive Weather Map New forecast layout! Learn more

10-Day Weather Forecast

Advertisements
Track Severe Weather on mobile